Time;durP1;ratioP1;P1;durP2;ratioP2;P2;SDS_P1;SDS_P2;PMS_P1;PMS_P2;Temp;Humidity;BMP_temperature;BMP_pressure;BME280_temperature;BME280_humidity;BME280_pressure;Samples;Min_cycle;Max_cycle;Signal;HPM_P1;HPM_P2
2022/07/08 00:00:38;;;;;;;6.85;1.63;;;15.20;99.90;;;;;;5034780;28;20103;-65
2022/07/08 00:03:04;;;;;;;9.85;1.90;;;15.20;99.90;;;;;;5032515;28;20393;-66
2022/07/08 00:05:30;;;;;;;6.20;1.80;;;15.20;99.90;;;;;;5037361;28;20044;-65
2022/07/08 00:07:56;;;;;;;8.50;1.92;;;15.20;99.90;;;;;;5034937;28;20048;-65
2022/07/08 00:10:22;;;;;;;7.47;1.48;;;15.20;99.90;;;;;;5031689;28;20033;-66
2022/07/08 00:12:47;;;;;;;6.93;1.80;;;15.20;99.90;;;;;;5034756;28;20366;-65
2022/07/08 00:15:13;;;;;;;6.80;1.67;;;15.10;99.90;;;;;;5035250;28;20039;-65
2022/07/08 00:17:39;;;;;;;7.70;1.88;;;15.10;99.90;;;;;;5036571;28;20036;-65
2022/07/08 00:20:06;;;;;;;8.23;2.10;;;15.10;99.90;;;;;;5035009;28;20025;-65
2022/07/08 00:22:33;;;;;;;8.75;1.88;;;15.00;99.90;;;;;;5039536;28;20045;-66
2022/07/08 00:24:59;;;;;;;6.00;1.42;;;15.00;99.90;;;;;;5018246;28;20870;-65
2022/07/08 00:27:25;;;;;;;9.10;2.00;;;15.00;99.90;;;;;;5017851;28;20043;-65
2022/07/08 00:29:50;;;;;;;8.82;2.13;;;14.90;99.90;;;;;;5034560;28;20037;-66
2022/07/08 00:32:16;;;;;;;7.25;1.88;;;14.90;99.90;;;;;;5032955;28;20036;-65
2022/07/08 00:34:42;;;;;;;8.38;1.80;;;14.90;99.90;;;;;;5049829;28;20064;-66
2022/07/08 00:37:08;;;;;;;11.80;2.00;;;14.90;99.90;;;;;;5038546;28;20047;-65
2022/07/08 00:39:33;;;;;;;6.70;1.75;;;14.90;99.90;;;;;;5028718;28;20079;-65
2022/07/08 00:42:00;;;;;;;11.98;1.83;;;14.80;99.90;;;;;;5039616;28;20044;-65
2022/07/08 00:44:25;;;;;;;15.63;2.05;;;14.80;99.90;;;;;;5017905;28;20041;-66
2022/07/08 00:46:51;;;;;;;6.32;1.63;;;14.90;99.90;;;;;;5034524;28;20045;-67
2022/07/08 00:49:17;;;;;;;5.95;1.65;;;14.90;99.90;;;;;;5027569;28;20111;-65
2022/07/08 00:51:45;;;;;;;9.45;1.70;;;15.00;99.90;;;;;;5034131;28;20061;-66
2022/07/08 00:54:13;;;;;;;7.20;1.98;;;14.80;99.90;;;;;;5033741;28;20040;-65
2022/07/08 00:56:40;;;;;;;8.25;1.80;;;14.90;99.90;;;;;;5033034;28;20116;-65
2022/07/08 00:59:08;;;;;;;10.13;2.30;;;14.80;99.90;;;;;;5034044;28;20041;-65
2022/07/08 01:01:34;;;;;;;6.13;1.40;;;14.90;99.90;;;;;;5025354;28;20036;-65
2022/07/08 01:04:01;;;;;;;6.22;1.90;;;14.80;99.90;;;;;;5033811;28;20048;-65
2022/07/08 01:06:26;;;;;;;5.78;1.90;;;14.80;99.90;;;;;;5034771;28;20041;-66
2022/07/08 01:08:52;;;;;;;7.88;1.75;;;14.80;99.90;;;;;;5036441;28;20028;-66
2022/07/08 01:11:18;;;;;;;5.63;1.60;;;14.70;99.90;;;;;;5037226;28;20120;-65
2022/07/08 01:13:44;;;;;;;5.45;1.63;;;14.60;99.90;;;;;;5023275;28;20048;-66
2022/07/08 01:16:10;;;;;;;7.10;1.70;;;14.80;99.90;;;;;;5037508;28;20044;-65
2022/07/08 01:18:36;;;;;;;8.43;1.95;;;14.80;99.90;;;;;;5040476;28;20029;-65
2022/07/08 01:21:02;;;;;;;7.07;1.98;;;14.80;99.90;;;;;;5037158;28;20040;-66
2022/07/08 01:23:28;;;;;;;6.65;1.80;;;14.80;99.90;;;;;;5031310;28;20049;-66
2022/07/08 01:25:55;;;;;;;9.32;1.80;;;14.80;99.90;;;;;;5037407;28;20187;-66
2022/07/08 01:28:21;;;;;;;6.63;1.88;;;14.80;99.90;;;;;;5034585;28;20094;-66
2022/07/08 01:30:48;;;;;;;10.02;1.67;;;14.80;99.90;;;;;;5030732;28;20099;-65
2022/07/08 01:33:14;;;;;;;8.27;2.03;;;14.70;99.90;;;;;;5037026;28;20053;-65
2022/07/08 01:35:39;;;;;;;7.90;1.90;;;14.80;99.90;;;;;;5021699;28;20045;-65
2022/07/08 01:38:05;;;;;;;7.25;1.80;;;14.70;99.90;;;;;;5036131;28;20119;-65
2022/07/08 01:40:31;;;;;;;7.05;1.90;;;14.70;99.90;;;;;;5036261;28;20036;-65
2022/07/08 01:42:56;;;;;;;7.00;1.98;;;14.80;99.90;;;;;;5037310;28;20037;-65
2022/07/08 01:45:22;;;;;;;6.15;1.75;;;14.70;99.90;;;;;;5018775;28;20458;-65
2022/07/08 01:47:48;;;;;;;7.95;1.70;;;14.70;99.90;;;;;;5036771;28;20465;-65
2022/07/08 01:50:13;;;;;;;5.35;1.50;;;14.70;99.90;;;;;;5036524;28;20047;-66
2022/07/08 01:52:39;;;;;;;9.35;1.90;;;14.60;99.90;;;;;;5015432;28;20160;-65
2022/07/08 01:55:06;;;;;;;6.35;1.70;;;14.60;99.90;;;;;;5019080;28;20466;-66
2022/07/08 01:57:31;;;;;;;9.27;2.15;;;14.50;99.90;;;;;;5028450;28;20044;-66
2022/07/08 01:59:57;;;;;;;8.63;2.47;;;14.40;99.90;;;;;;5036621;28;20034;-65
2022/07/08 02:02:23;;;;;;;9.02;1.90;;;14.40;99.90;;;;;;5033387;28;20505;-66
2022/07/08 02:04:49;;;;;;;10.30;2.28;;;14.30;99.90;;;;;;5037589;28;20732;-65
2022/07/08 02:07:15;;;;;;;8.05;2.03;;;14.30;99.90;;;;;;5016849;28;20470;-66
2022/07/08 02:09:41;;;;;;;7.97;1.80;;;14.20;99.90;;;;;;5018759;28;20041;-65
2022/07/08 02:12:20;;;;;;;6.60;1.73;;;14.20;99.90;;;;;;5041625;28;20472;-65
2022/07/08 02:14:51;;;;;;;8.05;2.25;;;14.20;99.90;;;;;;5036303;28;20051;-65
2022/07/08 02:17:19;;;;;;;7.38;1.80;;;14.10;99.90;;;;;;5018809;28;20033;-66
2022/07/08 02:19:45;;;;;;;7.57;1.98;;;14.10;99.90;;;;;;5032147;28;20148;-65
2022/07/08 02:22:11;;;;;;;8.40;1.83;;;14.00;99.90;;;;;;5049891;28;20111;-66
2022/07/08 02:24:37;;;;;;;7.97;1.88;;;14.00;99.90;;;;;;5021627;28;20037;-66
2022/07/08 02:27:04;;;;;;;6.85;2.15;;;14.00;99.90;;;;;;5020397;28;20060;-65
2022/07/08 02:29:30;;;;;;;9.45;1.92;;;14.00;99.90;;;;;;5025571;28;20123;-65
2022/07/08 02:31:56;;;;;;;9.13;2.10;;;13.90;99.90;;;;;;5035294;28;20186;-65
2022/07/08 02:34:22;;;;;;;9.85;2.13;;;13.90;99.90;;;;;;5035777;28;20048;-65
2022/07/08 02:36:47;;;;;;;6.28;1.70;;;13.90;99.90;;;;;;5035762;28;20541;-65
2022/07/08 02:39:13;;;;;;;7.18;2.00;;;13.70;99.90;;;;;;5037563;28;20043;-65
2022/07/08 02:41:40;;;;;;;7.20;2.03;;;13.80;99.90;;;;;;5035482;28;20047;-67
2022/07/08 02:44:06;;;;;;;7.35;1.85;;;13.70;99.90;;;;;;5032751;28;20041;-66
2022/07/08 02:46:32;;;;;;;8.65;2.00;;;13.70;99.90;;;;;;5035935;28;20402;-65
2022/07/08 02:48:58;;;;;;;8.95;2.13;;;13.80;99.90;;;;;;5035419;28;20041;-65
2022/07/08 02:51:24;;;;;;;7.75;1.90;;;13.70;99.90;;;;;;5036510;28;20045;-66
2022/07/08 02:53:49;;;;;;;8.18;2.03;;;13.70;99.90;;;;;;5015857;28;20163;-65
2022/07/08 02:56:15;;;;;;;6.13;2.13;;;13.70;99.90;;;;;;5058840;28;20045;-67
2022/07/08 02:58:41;;;;;;;7.20;2.00;;;13.70;99.90;;;;;;5037404;28;20075;-65
2022/07/08 03:01:06;;;;;;;6.53;1.77;;;13.70;99.90;;;;;;5035155;28;20041;-66
2022/07/08 03:03:32;;;;;;;8.73;1.92;;;13.60;99.90;;;;;;5032776;28;20047;-65
2022/07/08 03:05:57;;;;;;;8.88;1.85;;;13.70;99.90;;;;;;5035497;28;20041;-65
2022/07/08 03:08:23;;;;;;;9.88;2.00;;;13.60;99.90;;;;;;5036905;28;20041;-65
2022/07/08 03:10:49;;;;;;;11.20;1.90;;;13.60;99.90;;;;;;5034266;28;20071;-65
2022/07/08 03:13:15;;;;;;;9.57;2.20;;;13.50;99.90;;;;;;5032991;28;20033;-65
2022/07/08 03:15:41;;;;;;;10.48;2.00;;;13.50;99.90;;;;;;5035707;28;20451;-65
2022/07/08 03:18:07;;;;;;;8.20;2.00;;;13.40;99.90;;;;;;5038107;28;20032;-65
2022/07/08 03:20:33;;;;;;;8.70;1.77;;;13.60;99.90;;;;;;5020693;28;20354;-65
2022/07/08 03:22:59;;;;;;;6.93;2.03;;;13.60;99.90;;;;;;5033111;28;20136;-65
2022/07/08 03:25:25;;;;;;;11.73;2.28;;;13.50;99.90;;;;;;5052526;28;20053;-66
2022/07/08 03:27:51;;;;;;;8.30;1.98;;;13.50;99.90;;;;;;5038263;28;20128;-65
2022/07/08 03:30:16;;;;;;;5.63;1.58;;;13.50;99.90;;;;;;5035589;28;20132;-65
2022/07/08 03:32:42;;;;;;;7.00;1.98;;;13.50;99.90;;;;;;5034696;28;20131;-66
2022/07/08 03:35:08;;;;;;;8.55;2.10;;;13.50;99.90;;;;;;5032110;28;20037;-66
2022/07/08 03:37:34;;;;;;;6.88;1.63;;;13.50;99.90;;;;;;5038530;28;20302;-65
2022/07/08 03:42:44;;;;;;;11.30;2.10;;;13.50;99.90;;;;;;5033547;28;20041;-65
2022/07/08 03:45:10;;;;;;;10.20;2.33;;;13.40;99.90;;;;;;5029658;28;20374;-65
2022/07/08 03:47:35;;;;;;;8.15;2.00;;;13.50;99.90;;;;;;5032633;28;20051;-65
2022/07/08 03:50:01;;;;;;;5.13;1.70;;;13.50;99.90;;;;;;5035734;28;20440;-65
2022/07/08 03:52:27;;;;;;;7.60;2.17;;;13.40;99.90;;;;;;5017254;28;20040;-67
2022/07/08 03:54:52;;;;;;;9.43;1.98;;;13.40;99.90;;;;;;5027886;28;20098;-67
2022/07/08 03:57:18;;;;;;;10.15;1.95;;;13.50;99.90;;;;;;5033535;28;20037;-66
2022/07/08 03:59:43;;;;;;;9.93;2.00;;;13.50;99.90;;;;;;5034378;28;20033;-65
2022/07/08 04:02:09;;;;;;;7.03;1.88;;;13.50;99.90;;;;;;5033672;28;20386;-67
2022/07/08 04:04:35;;;;;;;8.88;2.00;;;13.50;99.90;;;;;;5032419;28;20045;-65
2022/07/08 04:07:00;;;;;;;6.20;1.58;;;13.60;99.90;;;;;;5034068;28;20579;-65
2022/07/08 04:09:27;;;;;;;7.95;1.90;;;13.70;99.90;;;;;;5032618;28;20545;-65
2022/07/08 04:11:52;;;;;;;8.45;2.30;;;13.70;99.90;;;;;;5038990;28;20142;-65
2022/07/08 04:14:18;;;;;;;7.78;2.13;;;13.70;99.90;;;;;;5034296;28;20084;-65
2022/07/08 04:16:44;;;;;;;6.32;1.83;;;13.70;99.90;;;;;;5041989;28;20124;-65
2022/07/08 04:19:10;;;;;;;13.90;3.03;;;13.70;99.90;;;;;;5017316;28;20710;-65
2022/07/08 04:21:36;;;;;;;9.88;2.20;;;13.80;99.90;;;;;;5022424;28;20045;-65
2022/07/08 04:24:01;;;;;;;8.35;2.10;;;13.80;99.90;;;;;;5034074;28;20048;-64
2022/07/08 04:26:31;;;;;;;5.80;2.00;;;13.80;99.90;;;;;;5034274;28;20490;-64
2022/07/08 04:28:58;;;;;;;6.45;1.83;;;13.80;99.90;;;;;;5029085;28;20120;-64
2022/07/08 04:31:25;;;;;;;11.18;2.10;;;13.80;99.90;;;;;;5017109;28;20036;-65
2022/07/08 04:33:50;;;;;;;12.00;2.28;;;14.00;99.90;;;;;;5034215;28;20037;-64
2022/07/08 04:36:16;;;;;;;9.45;2.08;;;14.10;99.90;;;;;;5033387;28;20519;-65
2022/07/08 04:38:42;;;;;;;4.38;1.88;;;14.20;99.90;;;;;;5017654;28;20088;-66
2022/07/08 04:41:07;;;;;;;10.25;2.05;;;14.10;99.90;;;;;;5022975;28;20040;-65
2022/07/08 04:43:33;;;;;;;8.02;2.53;;;14.40;99.90;;;;;;5018228;28;20033;-65
2022/07/08 04:45:58;;;;;;;9.10;2.03;;;14.50;99.90;;;;;;5037932;28;20076;-64
2022/07/08 04:48:25;;;;;;;10.10;2.00;;;14.60;99.90;;;;;;5039202;28;20045;-64
2022/07/08 04:50:50;;;;;;;9.10;2.38;;;14.80;99.90;;;;;;4992074;28;20139;-64
2022/07/08 04:53:16;;;;;;;12.35;2.30;;;14.80;99.90;;;;;;5042184;28;20116;-64
2022/07/08 04:55:42;;;;;;;9.20;2.30;;;14.90;99.90;;;;;;5036114;28;20033;-67
2022/07/08 04:58:09;;;;;;;8.07;2.10;;;14.90;99.90;;;;;;5021534;28;20439;-65
2022/07/08 05:00:35;;;;;;;10.18;2.42;;;15.10;99.90;;;;;;5031975;28;20043;-65
2022/07/08 05:03:01;;;;;;;8.73;2.42;;;15.40;99.90;;;;;;5033246;28;20111;-65
2022/07/08 05:05:27;;;;;;;15.05;1.92;;;15.70;99.90;;;;;;5039919;28;20049;-65
2022/07/08 05:07:54;;;;;;;7.00;2.30;;;15.90;99.90;;;;;;5047620;28;20060;-66
2022/07/08 05:10:23;;;;;;;11.55;2.20;;;16.00;99.90;;;;;;5036006;28;20374;-65
2022/07/08 05:12:49;;;;;;;10.43;2.95;;;16.00;99.90;;;;;;5037803;28;20124;-64
2022/07/08 05:15:15;;;;;;;11.48;2.05;;;15.90;99.90;;;;;;5030147;28;20041;-64
2022/07/08 05:17:40;;;;;;;9.20;2.03;;;16.00;99.90;;;;;;5019733;28;20051;-66
2022/07/08 05:20:08;;;;;;;9.73;2.15;;;15.90;99.90;;;;;;5035567;28;20041;-65
2022/07/08 05:22:35;;;;;;;11.52;2.45;;;16.00;99.90;;;;;;5021174;28;20049;-65
2022/07/08 05:25:02;;;;;;;12.02;2.30;;;16.00;99.90;;;;;;5048819;28;20171;-65
2022/07/08 05:27:28;;;;;;;13.70;2.55;;;16.00;99.90;;;;;;5040183;28;20098;-65
2022/07/08 05:29:54;;;;;;;13.73;2.70;;;16.00;99.90;;;;;;5036932;28;20401;-65
2022/07/08 05:32:19;;;;;;;10.60;1.98;;;15.90;99.90;;;;;;5041451;28;20052;-66
2022/07/08 05:34:45;;;;;;;9.15;2.13;;;15.80;99.90;;;;;;5038352;28;20040;-64
2022/07/08 05:37:11;;;;;;;11.25;2.05;;;15.90;99.90;;;;;;5036952;28;20102;-65
2022/07/08 05:39:39;;;;;;;11.85;2.38;;;15.80;99.90;;;;;;5028548;28;20090;-65
2022/07/08 05:42:10;;;;;;;18.48;2.70;;;15.80;99.90;;;;;;5037956;28;20037;-65
2022/07/08 05:44:36;;;;;;;16.90;2.25;;;15.80;99.90;;;;;;5054396;28;20130;-65
2022/07/08 05:47:03;;;;;;;9.40;2.13;;;15.90;99.90;;;;;;5038068;28;20045;-64
2022/07/08 05:49:30;;;;;;;8.60;2.35;;;15.90;99.90;;;;;;5035535;28;20536;-67
2022/07/08 05:51:55;;;;;;;7.18;2.35;;;16.10;99.90;;;;;;5027081;28;20059;-66
2022/07/08 05:54:21;;;;;;;13.75;2.20;;;16.10;99.90;;;;;;5043072;28;20079;-66
2022/07/08 05:56:47;;;;;;;7.18;1.95;;;16.20;99.90;;;;;;5027522;28;20065;-66
2022/07/08 05:59:12;;;;;;;11.52;2.22;;;16.20;99.90;;;;;;5036538;28;20029;-65
2022/07/08 06:01:38;;;;;;;11.40;2.10;;;16.30;99.90;;;;;;5033469;28;20040;-64
2022/07/08 06:04:04;;;;;;;12.10;2.45;;;16.30;99.90;;;;;;5038961;28;20036;-65
2022/07/08 06:06:29;;;;;;;12.30;2.20;;;16.40;99.90;;;;;;5035929;28;20540;-65
2022/07/08 06:08:55;;;;;;;7.20;1.95;;;16.80;99.90;;;;;;5036373;28;20128;-65
2022/07/08 06:11:21;;;;;;;12.95;2.22;;;17.80;99.90;;;;;;5043273;28;20370;-64
2022/07/08 06:13:53;;;;;;;12.82;2.35;;;19.00;99.90;;;;;;5035656;28;20044;-65
2022/07/08 06:16:19;;;;;;;7.25;2.60;;;20.00;99.90;;;;;;5034169;28;20363;-64
2022/07/08 06:18:45;;;;;;;12.82;2.50;;;20.50;99.90;;;;;;5020977;28;20083;-64
2022/07/08 06:21:10;;;;;;;8.77;2.38;;;20.70;99.90;;;;;;5035168;28;20040;-64
2022/07/08 06:23:36;;;;;;;10.60;2.13;;;20.70;99.90;;;;;;5030003;28;20065;-65
2022/07/08 06:26:02;;;;;;;11.20;2.05;;;20.40;99.90;;;;;;5003525;28;20122;-65
2022/07/08 06:28:27;;;;;;;7.95;1.95;;;19.90;99.90;;;;;;5017527;28;20037;-64
2022/07/08 06:30:53;;;;;;;15.32;2.30;;;19.80;99.90;;;;;;5037373;28;20116;-65
2022/07/08 06:33:20;;;;;;;9.70;2.22;;;19.70;99.90;;;;;;5017108;28;20462;-65
2022/07/08 06:35:45;;;;;;;10.40;2.45;;;19.50;99.90;;;;;;5039040;28;20063;-65
2022/07/08 06:38:11;;;;;;;13.38;2.13;;;19.10;99.90;;;;;;5032182;28;20331;-65
2022/07/08 06:40:37;;;;;;;9.20;2.22;;;18.80;99.90;;;;;;5014269;28;20033;-66
2022/07/08 06:43:02;;;;;;;8.48;1.83;;;18.50;99.90;;;;;;5045507;28;20039;-66
2022/07/08 06:45:31;;;;;;;7.57;1.90;;;18.50;99.90;;;;;;5045630;28;20037;-66
2022/07/08 06:47:58;;;;;;;9.38;2.22;;;18.40;99.90;;;;;;5028115;28;20461;-65
2022/07/08 06:50:24;;;;;;;9.93;2.30;;;18.20;99.90;;;;;;5032163;28;20037;-65
2022/07/08 06:52:50;;;;;;;10.38;2.08;;;18.00;99.90;;;;;;5048876;28;20048;-65
2022/07/08 06:55:15;;;;;;;7.47;2.20;;;18.00;99.90;;;;;;5049028;28;20029;-65
2022/07/08 06:57:41;;;;;;;7.57;1.83;;;18.00;99.90;;;;;;5031593;28;20040;-65
2022/07/08 07:00:07;;;;;;;8.55;2.13;;;18.10;99.90;;;;;;5046216;28;20343;-65
2022/07/08 07:02:33;;;;;;;10.93;2.22;;;18.20;99.90;;;;;;5017974;28;20037;-65
2022/07/08 07:05:00;;;;;;;8.43;1.90;;;18.30;99.90;;;;;;5047294;28;20407;-65
2022/07/08 07:07:27;;;;;;;14.35;2.35;;;18.30;99.90;;;;;;5029522;28;20037;-66
2022/07/08 07:09:53;;;;;;;11.70;2.45;;;18.20;99.90;;;;;;5028829;28;20115;-65
2022/07/08 07:12:18;;;;;;;7.35;1.88;;;18.20;99.90;;;;;;5018582;28;20124;-66
2022/07/08 07:14:44;;;;;;;8.32;1.92;;;18.20;99.90;;;;;;5033373;28;20048;-64
2022/07/08 07:17:10;;;;;;;8.38;1.88;;;18.20;99.90;;;;;;5020928;28;20040;-62
2022/07/08 07:19:35;;;;;;;11.07;2.22;;;18.30;99.90;;;;;;5018744;28;20135;-64
2022/07/08 07:22:01;;;;;;;7.70;2.10;;;18.40;99.90;;;;;;5029276;28;20053;-64
2022/07/08 07:24:30;;;;;;;9.70;2.10;;;18.40;99.90;;;;;;5048790;28;20048;-65
2022/07/08 07:26:56;;;;;;;9.68;1.85;;;18.50;99.90;;;;;;5047973;28;20059;-64
2022/07/08 07:29:21;;;;;;;9.50;2.22;;;18.70;99.90;;;;;;5026723;28;20361;-65
2022/07/08 07:31:47;;;;;;;13.68;2.35;;;18.70;99.90;;;;;;5049304;28;20032;-65
2022/07/08 07:34:13;;;;;;;11.45;2.20;;;18.80;99.90;;;;;;5050230;28;20033;-64
2022/07/08 07:36:38;;;;;;;6.53;1.80;;;18.80;99.90;;;;;;5029890;28;20389;-65
2022/07/08 07:39:04;;;;;;;9.32;1.90;;;18.80;99.90;;;;;;5016952;28;20079;-64
2022/07/08 07:41:30;;;;;;;7.38;2.15;;;18.80;99.90;;;;;;5037141;28;20382;-64
2022/07/08 07:43:56;;;;;;;6.40;1.85;;;18.80;99.90;;;;;;5045094;28;20112;-65
2022/07/08 07:46:22;;;;;;;11.32;2.67;;;18.80;99.90;;;;;;5045535;28;20140;-64
2022/07/08 07:48:47;;;;;;;12.52;2.50;;;18.90;99.90;;;;;;5050520;28;20040;-64
2022/07/08 07:51:13;;;;;;;7.72;2.00;;;18.90;99.90;;;;;;5030063;28;20051;-64
2022/07/08 07:53:39;;;;;;;10.43;2.35;;;19.10;99.90;;;;;;5042802;28;20459;-66
2022/07/08 07:56:05;;;;;;;7.65;2.00;;;19.10;99.90;;;;;;5018716;28;20045;-63
2022/07/08 07:58:31;;;;;;;9.80;1.75;;;19.10;99.90;;;;;;5030770;28;20041;-64
2022/07/08 08:00:57;;;;;;;6.63;2.20;;;19.10;99.90;;;;;;5048035;28;20094;-66
2022/07/08 08:03:23;;;;;;;9.15;2.00;;;19.10;99.90;;;;;;5028626;28;20033;-65
2022/07/08 08:05:48;;;;;;;12.23;2.25;;;19.20;99.90;;;;;;5029364;28;20124;-64
2022/07/08 08:08:14;;;;;;;9.43;1.92;;;19.30;99.90;;;;;;5036235;28;20131;-64
2022/07/08 08:10:40;;;;;;;10.27;2.38;;;19.30;99.90;;;;;;5031399;28;20045;-64
2022/07/08 08:13:05;;;;;;;6.25;1.80;;;19.20;99.90;;;;;;5037889;28;20076;-64
2022/07/08 08:15:33;;;;;;;6.80;2.15;;;19.30;99.90;;;;;;5027517;28;20377;-65
2022/07/08 08:17:59;;;;;;;9.68;2.55;;;19.30;99.90;;;;;;5013157;28;20037;-64
2022/07/08 08:20:27;;;;;;;8.18;1.90;;;19.40;99.90;;;;;;5051156;28;20038;-64
2022/07/08 08:22:55;;;;;;;7.75;2.25;;;19.40;99.90;;;;;;5048305;28;20075;-65
2022/07/08 08:25:21;;;;;;;9.68;1.90;;;19.50;99.90;;;;;;5029413;28;20055;-65
2022/07/08 08:27:47;;;;;;;11.00;2.53;;;19.50;99.90;;;;;;5036683;28;20063;-65
2022/07/08 08:30:15;;;;;;;9.63;2.55;;;19.50;99.90;;;;;;5049111;28;20462;-64
2022/07/08 08:32:41;;;;;;;10.68;2.15;;;19.50;99.90;;;;;;5051732;28;20481;-65
2022/07/08 08:35:08;;;;;;;9.05;2.38;;;19.60;99.90;;;;;;5049707;28;20040;-65
2022/07/08 08:37:34;;;;;;;8.85;2.30;;;19.70;99.90;;;;;;5048631;28;20079;-65
2022/07/08 08:40:05;;;;;;;8.85;2.00;;;19.80;99.90;;;;;;5033216;28;20430;-65
2022/07/08 08:42:32;;;;;;;8.85;2.05;;;19.80;99.90;;;;;;5051410;28;20041;-65
2022/07/08 08:44:59;;;;;;;8.13;1.90;;;19.80;99.90;;;;;;5034560;28;20068;-65
2022/07/08 08:47:28;;;;;;;6.03;2.08;;;19.90;99.90;;;;;;5048471;28;20541;-66
2022/07/08 08:49:55;;;;;;;8.90;2.15;;;19.80;99.90;;;;;;5018673;28;20443;-66
2022/07/08 08:52:24;;;;;;;7.88;1.95;;;19.90;99.90;;;;;;5022598;28;20106;-65
2022/07/08 08:54:51;;;;;;;9.38;1.95;;;19.80;99.90;;;;;;5032156;28;20407;-64
2022/07/08 08:57:20;;;;;;;7.93;1.80;;;19.90;99.90;;;;;;5034368;28;20037;-66
2022/07/08 08:59:49;;;;;;;6.65;1.80;;;19.90;99.90;;;;;;5025924;28;20036;-65
2022/07/08 09:02:14;;;;;;;5.50;1.88;;;20.00;99.90;;;;;;5051502;28;20033;-65
2022/07/08 09:04:40;;;;;;;6.55;2.50;;;20.20;99.90;;;;;;5030755;28;20056;-65
2022/07/08 09:07:06;;;;;;;6.13;1.80;;;20.30;99.90;;;;;;5031825;28;20098;-64
2022/07/08 09:09:32;;;;;;;4.85;1.70;;;20.20;99.90;;;;;;5047170;28;20678;-65
2022/07/08 09:12:16;;;;;;;8.68;1.60;;;20.40;99.90;;;;;;5037579;28;20378;-64
2022/07/08 09:14:52;;;;;;;13.20;2.95;;;20.50;99.90;;;;;;5049151;28;20033;-65
2022/07/08 09:17:18;;;;;;;7.05;1.98;;;20.60;99.90;;;;;;5012955;28;20446;-65
2022/07/08 09:19:50;;;;;;;6.70;2.40;;;20.70;99.90;;;;;;5049988;28;20472;-65
2022/07/08 09:22:16;;;;;;;8.13;1.85;;;20.80;99.90;;;;;;5048511;28;20057;-66
2022/07/08 09:24:44;;;;;;;6.95;2.17;;;20.90;99.90;;;;;;5050913;28;20045;-65
2022/07/08 09:27:11;;;;;;;7.22;1.77;;;20.90;99.90;;;;;;5029673;28;20096;-65
2022/07/08 09:29:55;;;;;;;5.93;2.00;;;20.90;99.90;;;;;;5048150;28;20045;-65
2022/07/08 09:32:20;;;;;;;8.93;2.70;;;21.10;99.90;;;;;;5034272;28;20060;-65
2022/07/08 09:34:46;;;;;;;9.32;2.47;;;21.00;99.90;;;;;;5032995;28;20037;-65
2022/07/08 09:37:17;;;;;;;9.77;2.15;;;20.90;99.90;;;;;;5010888;28;20039;-65
2022/07/08 09:39:44;;;;;;;9.98;2.38;;;20.90;99.90;;;;;;5047395;28;20102;-65
2022/07/08 09:42:11;;;;;;;9.10;2.10;;;20.90;99.90;;;;;;5049690;28;20045;-65
2022/07/08 09:44:37;;;;;;;8.57;2.63;;;20.80;99.90;;;;;;5028012;28;20033;-64
2022/07/08 09:47:14;;;;;;;9.23;2.50;;;21.00;99.90;;;;;;5031013;28;20048;-65
2022/07/08 09:49:46;;;;;;;12.93;2.85;;;21.00;99.90;;;;;;5038619;28;20822;-65
2022/07/08 09:52:20;;;;;;;9.70;2.40;;;21.20;99.90;;;;;;5033190;28;20128;-66
2022/07/08 09:54:45;;;;;;;12.63;2.92;;;21.20;99.90;;;;;;5048768;28;20374;-65
2022/07/08 09:57:13;;;;;;;14.13;3.78;;;21.30;99.90;;;;;;5050324;28;20458;-65
2022/07/08 09:59:39;;;;;;;11.98;3.97;;;21.40;99.90;;;;;;5047615;28;20034;-65
2022/07/08 10:02:05;;;;;;;12.02;3.60;;;21.40;99.90;;;;;;5033662;28;20064;-65
2022/07/08 10:04:31;;;;;;;9.20;2.75;;;21.40;99.90;;;;;;5032221;28;20057;-64
2022/07/08 10:06:58;;;;;;;12.07;2.90;;;21.40;99.90;;;;;;5048934;28;20037;-65
2022/07/08 10:09:25;;;;;;;9.50;2.00;;;21.50;99.90;;;;;;5048517;28;20043;-65
2022/07/08 10:11:52;;;;;;;5.72;2.22;;;21.50;99.90;;;;;;5032104;28;20041;-64
2022/07/08 10:14:18;;;;;;;14.00;3.45;;;21.50;99.90;;;;;;5047934;28;20032;-65
2022/07/08 10:16:46;;;;;;;15.90;3.30;;;21.50;99.90;;;;;;5028587;28;20033;-65
2022/07/08 10:19:19;;;;;;;11.68;2.55;;;21.60;99.90;;;;;;5031634;28;20037;-65
2022/07/08 10:21:50;;;;;;;8.75;2.47;;;21.60;99.90;;;;;;5021624;28;20053;-66
2022/07/08 10:24:22;;;;;;;14.20;3.10;;;21.60;99.90;;;;;;5050788;28;20068;-65
2022/07/08 10:26:48;;;;;;;7.32;2.97;;;21.70;99.90;;;;;;5050417;28;20408;-65
2022/07/08 10:29:14;;;;;;;9.98;2.25;;;21.60;99.90;;;;;;5027171;28;20458;-67
2022/07/08 10:31:45;;;;;;;10.23;2.40;;;21.60;99.90;;;;;;5030397;28;20037;-65
2022/07/08 10:34:12;;;;;;;5.80;1.77;;;21.60;99.90;;;;;;5047337;28;20146;-65
2022/07/08 10:36:46;;;;;;;8.82;2.40;;;21.60;99.90;;;;;;5048527;28;20126;-65
2022/07/08 10:39:13;;;;;;;8.18;2.42;;;21.80;99.90;;;;;;5048855;28;20358;-65
2022/07/08 10:41:39;;;;;;;11.02;2.10;;;21.80;99.90;;;;;;5032275;28;20037;-65
2022/07/08 10:44:05;;;;;;;7.20;2.05;;;21.90;99.90;;;;;;5045860;28;20033;-64
2022/07/08 10:46:31;;;;;;;8.63;2.08;;;22.00;99.90;;;;;;5017461;28;20444;-65
2022/07/08 10:48:58;;;;;;;7.72;2.38;;;22.10;99.90;;;;;;5047711;28;20044;-65
2022/07/08 10:51:24;;;;;;;5.40;2.30;;;22.10;99.90;;;;;;5033973;28;20429;-65
2022/07/08 10:53:53;;;;;;;7.85;1.80;;;22.10;99.90;;;;;;5029677;28;20117;-65
2022/07/08 10:56:49;;;;;;;8.02;2.85;;;22.10;99.90;;;;;;5032515;28;20138;-65
2022/07/08 10:59:19;;;;;;;8.85;2.75;;;22.10;99.90;;;;;;5039497;28;20037;-65
2022/07/08 11:02:00;;;;;;;7.40;2.50;;;22.00;99.90;;;;;;5025781;28;20037;-65
2022/07/08 11:04:35;;;;;;;8.75;2.30;;;22.20;99.90;;;;;;5046827;28;20107;-66
2022/07/08 11:07:20;;;;;;;6.90;2.50;;;22.30;99.90;;;;;;5046872;28;20060;-64
2022/07/08 11:10:12;;;;;;;5.97;1.95;;;22.30;99.90;;;;;;5045763;28;20378;-65
2022/07/08 11:12:40;;;;;;;9.00;2.28;;;22.20;99.90;;;;;;5025821;28;20434;-65
2022/07/08 11:15:10;;;;;;;7.82;2.40;;;22.00;99.90;;;;;;5026599;28;20049;-65
2022/07/08 11:17:37;;;;;;;8.65;2.65;;;22.00;99.90;;;;;;5030400;28;20037;-65
2022/07/08 11:20:15;;;;;;;7.80;2.90;;;22.10;99.90;;;;;;5032748;28;20112;-65
2022/07/08 11:22:43;;;;;;;8.88;2.88;;;22.20;99.90;;;;;;5040612;28;20071;-64
2022/07/08 11:25:12;;;;;;;14.77;2.80;;;22.20;99.90;;;;;;5048979;28;20719;-63
2022/07/08 11:27:38;;;;;;;8.40;2.55;;;22.30;99.90;;;;;;5047213;28;20063;-63
2022/07/08 11:30:09;;;;;;;8.93;2.72;;;22.40;99.90;;;;;;5044526;28;20589;-64
2022/07/08 11:32:35;;;;;;;10.23;2.92;;;22.50;99.90;;;;;;5037545;28;20108;-64
2022/07/08 11:35:00;;;;;;;9.77;3.25;;;22.70;99.90;;;;;;5048971;28;20091;-62
2022/07/08 11:37:26;;;;;;;11.65;3.20;;;22.70;99.90;;;;;;5025152;28;20075;-63
2022/07/08 11:39:52;;;;;;;9.77;2.88;;;22.70;99.90;;;;;;5033779;28;20039;-63
2022/07/08 11:42:18;;;;;;;7.10;2.10;;;22.80;99.90;;;;;;5029281;28;20413;-64
2022/07/08 11:44:45;;;;;;;7.90;2.15;;;22.60;99.90;;;;;;5037545;28;20052;-63
2022/07/08 11:47:15;;;;;;;6.47;2.10;;;22.40;99.90;;;;;;5041646;28;20454;-63
2022/07/08 11:49:46;;;;;;;7.13;2.20;;;22.40;99.90;;;;;;5020388;28;20056;-62
2022/07/08 11:52:15;;;;;;;7.05;2.00;;;22.50;99.90;;;;;;5045931;28;20041;-62
2022/07/08 11:54:44;;;;;;;8.80;2.70;;;22.70;99.90;;;;;;5047009;28;20357;-63
2022/07/08 11:57:10;;;;;;;7.82;2.35;;;22.90;99.90;;;;;;5026535;28;20732;-63
2022/07/08 11:59:36;;;;;;;7.35;2.65;;;23.00;99.90;;;;;;5045676;28;20026;-63
2022/07/08 12:02:04;;;;;;;5.95;2.30;;;23.10;99.90;;;;;;5026928;28;20049;-63
2022/07/08 12:04:30;;;;;;;7.28;2.33;;;23.30;99.90;;;;;;5023860;28;20041;-63
2022/07/08 12:07:00;;;;;;;6.38;2.00;;;23.50;99.90;;;;;;5030884;28;20043;-63
2022/07/08 12:09:27;;;;;;;8.40;2.38;;;23.50;99.90;;;;;;5026649;28;20124;-64
2022/07/08 12:11:54;;;;;;;9.45;2.45;;;23.50;99.90;;;;;;5036238;28;20048;-64
2022/07/08 12:14:21;;;;;;;9.25;2.50;;;23.50;99.90;;;;;;5051379;28;20032;-63
2022/07/08 12:16:55;;;;;;;5.40;1.70;;;23.70;99.90;;;;;;5029111;28;20079;-64
2022/07/08 12:19:32;;;;;;;4.63;1.90;;;23.90;99.90;;;;;;5042307;28;20457;-64
2022/07/08 12:21:59;;;;;;;6.95;2.10;;;23.80;99.90;;;;;;5030481;28;20103;-64
2022/07/08 12:24:33;;;;;;;5.78;1.90;;;23.80;99.90;;;;;;5025877;28;20041;-62
2022/07/08 12:27:01;;;;;;;9.98;2.53;;;23.70;99.90;;;;;;5030151;28;20048;-64
2022/07/08 12:29:28;;;;;;;4.85;2.00;;;23.60;99.90;;;;;;5043376;28;20091;-63
2022/07/08 12:31:54;;;;;;;6.93;2.30;;;23.50;99.90;;;;;;5047459;28;20033;-64
2022/07/08 12:34:22;;;;;;;8.90;2.15;;;23.40;99.90;;;;;;5045237;28;20029;-63
2022/07/08 12:36:48;;;;;;;7.80;1.85;;;23.30;99.90;;;;;;5028837;28;20037;-62
2022/07/08 12:39:20;;;;;;;8.00;2.10;;;23.20;99.90;;;;;;5032491;28;20044;-65
2022/07/08 12:42:00;;;;;;;5.47;1.65;;;23.10;99.90;;;;;;5034369;28;20056;-63
2022/07/08 12:44:30;;;;;;;7.15;2.10;;;23.10;99.90;;;;;;5050067;28;20084;-63
2022/07/08 12:46:56;;;;;;;7.18;2.28;;;23.10;99.90;;;;;;5037469;28;20029;-63